ADDS METAR Data INFO
IDs: Format: Raw Decoded Include TAF

Data at: 1950 UTC 14 Aug 2018

KGON 141856Z 18009KT 10SM SCT042 27/22 A2985 RMK AO2 SLP106 T02670222
KGON 141756Z COR 18009KT 10SM SCT042 27/23 A2986 RMK AO2 SLP109 T02670228 10267 20233 58012
KGON 141656Z 18008KT 10SM SCT042 26/23 A2987 RMK AO2 SLP114 T02610228
KGON 141556Z 20006KT 10SM FEW013 SCT042 BKN060 25/23 A2989 RMK AO2 SLP120 T02500228
KGON 141456Z 15008KT 10SM FEW050 26/24 A2989 RMK AO2 SLP121 T02610239 55004
KGON 141356Z COR 14007KT 7SM SCT010 26/24 A2988 RMK AO2 SLP118 T02610239
KGON 141327Z 12006KT 7SM FEW013 SCT022 BKN070 24/23 A2989 RMK AO2 T02440233
KGON 141310Z 14003KT 6SM BR SCT019 BKN025 BKN070 24/23 A2989 RMK AO2 T02440233
KGON 141256Z 12004KT 6SM BR SCT005 24/23 A2989 RMK AO2 SLP121 T02440233
KGON 141218Z 16005KT 4SM BR FEW005 24/23 A2990 RMK AO2 T02390233
KGON 141211Z 15004KT 4SM BR BKN005 BKN014 24/23 A2990 RMK AO2 T02390233
KGON 141203Z 15004KT 4SM BR BKN003 BKN014 24/23 A2990 RMK AO2 T02390233
KGON 141156Z 00000KT 2 1/2SM BR BKN003 BKN014 23/23 A2990 RMK AO2 SLP125 70029 T02330233 10233 20217 53006
KGON 141111Z 13003KT 1 1/2SM BR SCT006 BKN013 BKN024 23/23 A2990 RMK AO2 T02330233
KGON 141105Z 13004KT 4SM BR SCT006 BKN013 BKN024 23/23 A2989 RMK AO2 T02330233
KGON 141058Z 13006KT 4SM BR SCT006 SCT013 BKN047 23/23 A2989 RMK AO2 T02330228
KGON 141056Z 12005KT 4SM BR SCT006 BKN013 BKN047 23/23 A2989 RMK AO2 SLP121 T02330228
KGON 141053Z 12006KT 4SM BR FEW006 SCT013 BKN047 23/23 A2989 RMK AO2
KGON 141037Z AUTO 14006KT 4SM BR SCT002 SCT008 BKN013 23/23 A2989 RMK AO2 T02280228
KGON 141030Z AUTO 14005KT 3SM BR BKN002 BKN013 23/22 A2989 RMK AO2 T02280222
KGON 141023Z AUTO 14005KT 1 3/4SM R05/4500VP6000FT BR BKN002 OVC013 23/22 A2989 RMK AO2 T02280222
KGON 141015Z AUTO 13004KT 3/4SM R05/4500VP6000FT BR OVC002 23/23 A2989 RMK AO2 T02280228
KGON 140956Z AUTO 13006KT 1/4SM R05/1800V3500FT FG VV002 23/23 A2989 RMK AO2 SLP121 T02280228
KGON 140937Z AUTO 11004KT 1/4SM R05/1800FT FG VV002 23/22 A2988 RMK AO2 T02280222
KGON 140927Z AUTO 00000KT 1/2SM R05/1800V4000FT FG VV002 23/23 A2989 RMK AO2 T02280228
KGON 140903Z AUTO 00000KT 1 1/2SM R05/3000VP6000FT BR OVC003 23/22 A2988 RMK AO2 T02280222
KGON 140856Z AUTO 00000KT 3/4SM R05/2600V4000FT BR OVC003 23/22 A2988 RMK AO2 SLP119 T02280222 56005
KGON 140849Z AUTO 06003KT 1/2SM R05/2600V4500FT FG VV003 23/22 A2988 RMK AO2 T02280222
KGON 140841Z AUTO 00000KT 1/4SM R05/1800V4500FT FG VV002 23/22 A2988 RMK AO2 T02280222
KGON 140756Z AUTO 00000KT 1/4SM R05/1200V1600FT FG VV002 23/22 A2989 RMK AO2 SLP120 T02280222
KGON 140725Z AUTO 00000KT 1/4SM R05/1800V2200FT FG VV002 23/22 A2989 RMK AO2 T02280222
KGON 140656Z AUTO 00000KT 3/4SM R05/4000VP6000FT BR OVC003 22/22 A2989 RMK AO2 SLP120 T02220217
KGON 140616Z AUTO 00000KT 1/2SM R05/2800VP6000FT FG OVC003 22/22 A2989 RMK AO2 T02220217
KGON 140607Z AUTO 00000KT 1 1/2SM BR BKN003 22/22 A2990 RMK AO2 T02220217
KGON 140556Z AUTO 06003KT 3SM R05/3500VP6000FT BR OVC003 23/22 A2990 RMK AO2 CIG 002V007 SLP124 T02280222 10233 20222 58004
KGON 140547Z AUTO 00000KT 2 1/2SM BR BKN005 OVC013 22/22 A2990 RMK AO2 CIG 002V007 T02220217
KGON 140534Z AUTO 15003KT 5SM BR BKN004 OVC013 22/22 A2991 RMK AO2 CIG 002V009 T02220222
KGON 140510Z AUTO 00000KT 6SM BR SCT003 BKN008 22/22 A2991 RMK AO2 CIG 006V012 T02220217
KGON 140456Z AUTO 00000KT 7SM SCT007 23/22 A2991 RMK AO2 SLP129 T02280222 402390217
KGON 140443Z AUTO 00000KT 7SM BKN007 23/22 A2992 RMK AO2 T02280222
KGON 140435Z AUTO 15003KT 7SM SCT007 23/22 A2992 RMK AO2 T02280222
KGON 140405Z AUTO 12006KT 6SM BR FEW011 23/22 A2991 RMK AO2 T02280222
KGON 140356Z AUTO 11007KT 7SM FEW002 BKN011 23/23 A2991 RMK AO2 SLP127 T02280228
KGON 140353Z AUTO 10008KT 6SM BR SCT002 BKN011 23/23 A2991 RMK AO2
KGON 140256Z AUTO 11007KT 5SM BR OVC003 23/23 A2991 RMK AO2 SLP129 T02280228 50002
KGON 140203Z AUTO 10008KT 5SM BR OVC002 23/22 A2992 RMK AO2 T02280222
KGON 140156Z 10009KT 4SM BR SCT005 BKN013 23/22 A2992 RMK AO2 SLP131 T02280222
KGON 140103Z 10009KT 8SM SCT005 BKN013 23/22 A2991 RMK AO2 T02280222
KGON 140056Z 10010KT 8SM BKN004 OVC015 23/22 A2991 RMK AO2 SLP129 T02280222
KGON 132356Z 11011KT 4SM BR OVC004 23/22 A2991 RMK AO2 RAE03 SLP128 P0000 60015 T02280222 10233 20228 53002
KGON 132256Z 10013G22KT 4SM -RA BR BKN004 OVC010 23/22 A2990 RMK AO2 RAB49 SLP126 P0000 T02330222
KGON 132253Z 09015G22KT 4SM -RA BR BKN004 OVC010 23/22 A2990 RMK AO2 RAB49 P0000
KGON 132156Z 09010KT 10SM BKN007 OVC010 23/22 A2990 RMK AO2 RAB30E49 SLP125 P0001 T02330222
KGON 132056Z 06011KT 7SM OVC008 23/22 A2991 RMK AO2 RAE45 SLP128 P0003 60014 T02280222 58021
KGON 131956Z 04011KT 4SM -RA BR OVC008 23/22 A2994 RMK AO2 SLP138 P0006 T02280217
KGON 131924Z 05011KT 4SM R05/5000VP6000FT RA BR OVC008 23/22 A2994 RMK AO2 P0004 T02280217
KGON 131856Z 05011KT 10SM -RA OVC013 23/22 A2995 RMK AO2 SLP142 P0005 T02280217
KGON 131756Z 05012KT 5SM -RA BR SCT016 BKN020 OVC039 23/22 A2997 RMK AO2 RAB1657 SLP149 P0014 60014 T02280217 10239 20222 58015
KGON 131754Z 05013KT 3SM -RA BR FEW010 BKN020 OVC060 23/22 A2997 RMK AO2 RAB1657 P0014
KGON 131746Z 05012KT 1 3/4SM R05/4000VP6000FT +RA BR OVC007 23/22 A2998 RMK AO2 RAB1657 P0013 T02280217
KGON 131741Z 05010KT 3SM -RA BR OVC007 23/22 A2998 RMK AO2 RAB1657 P0009 T02280217
KGON 131729Z 05011KT 2SM R05/4500VP6000FT RA BR OVC007 23/22 A2998 RMK AO2 RAB1657 P0006 T02280217
KGON 131656Z 05011KT 10SM OVC012 23/21 A2999 RMK AO2 RAB38E48 SLP156 P0000 T02330211
KGON 131556Z 05011KT 10SM OVC011 23/21 A3001 RMK AO2 RAB14E26 SLP161 P0000 T02330211
KGON 131456Z 05013KT 10SM OVC012 24/21 A3002 RMK AO2 SLP164 T02390211 57007
KGON 131356Z 03009KT 10SM OVC011 23/21 A3003 RMK AO2 SLP168 T02330206
KGON 131309Z 04008KT 10SM OVC011 23/21 A3003 RMK AO2 CIG 009V014 T02280206 $
KGON 131256Z 03009KT 10SM BKN009 OVC014 23/21 A3003 RMK AO2 CIG 008V013 SLP168 T02280206 $
KGON 131156Z 04007KT 10SM OVC007 22/21 A3004 RMK AO2 CIG 007V011 SLP172 70001 T02220206 10222 20217 50001 $
KGON 131056Z 04010KT 10SM OVC007 22/20 A3004 RMK AO2 SLP172 T02170200 $
KGON 130956Z AUTO 03007KT 10SM OVC006 22/20 A3004 RMK AO2 SLP173 T02170200 $
KGON 130856Z AUTO 04009KT 10SM OVC006 22/20 A3004 RMK AO2 SLP171 T02170200 56006 $
KGON 130756Z AUTO 04009KT 10SM OVC006 22/21 A3004 RMK AO2 SLP171 T02170206 $